Ely Arpt /Yelland Fld/ Information

FAA: ELY - ICAO: KELY

Ely Arpt /Yelland Fld/ (Airport) Location

State Nevada
County White Pine
City Ely
Ely Arpt /Yelland Fld/ (Airport) is 3 miles northeast of Ely, NV.
Latitude 39-17-58.8780N
Longitude 114-50-30.7610W
Elevation 6,259ft

Ely Arpt /Yelland Fld/ METARs

METAR KELY 060853Z AUTO 18010KT 10SM CLR M07/M13 A3028 RMK AO2 SLP241 T10671133 58002
Altimeter 30.28"
Temperature -6.7°C (19.9°F)
Wind 180° at 10KT
Clouds Skies are clear.
Visibility 10.0mi
Time observed: 2021-12-06T08:53:00Z

Ely Arpt /Yelland Fld/ (Airport) Details

Status Operational
Activation November 1938
Ownership Public
Usage Public
Chart LAS VEGAS
ATC on-site No
Beacon schedule sunset-sunrise
Beacon color clear green

Ely Arpt /Yelland Fld/ (Airport) Contacts

Owner WHITE PINE COUNTY
Owner address 801 CLARK ST., ELY, NV 89301
Owner phone (775) 293-6509
Manager THOMAS E. MAHER
Manager address 901 ADAMS BOULEVARD, BOULDER CITY, NV 89005
Manager phone 702-293-4111

Ely Arpt /Yelland Fld/ Radio Frequencies

Ely Arpt /Yelland Fld/ (Airport) Radio Frequencies

UNICOM 122.8
Common traffic advisory frequency (CTAF) 122.8